sensor_id;sensor_type;location;lat;lon;timestamp;P1;durP1;ratioP1;P2;durP2;ratioP2
67108;SDS011;54027;50.786;7.058;2023-04-15T00:01:23;6.85;;;4.75;;
67108;SDS011;54027;50.786;7.058;2023-04-15T00:03:52;9.40;;;4.15;;
67108;SDS011;54027;50.786;7.058;2023-04-15T00:06:18;13.65;;;4.28;;
67108;SDS011;54027;50.786;7.058;2023-04-15T00:08:45;11.82;;;4.13;;
67108;SDS011;54027;50.786;7.058;2023-04-15T00:11:10;13.02;;;4.30;;
67108;SDS011;54027;50.786;7.058;2023-04-15T00:13:36;9.95;;;3.95;;
67108;SDS011;54027;50.786;7.058;2023-04-15T00:16:02;13.80;;;4.43;;
67108;SDS011;54027;50.786;7.058;2023-04-15T00:18:28;11.45;;;5.22;;
67108;SDS011;54027;50.786;7.058;2023-04-15T00:20:53;14.80;;;5.35;;
67108;SDS011;54027;50.786;7.058;2023-04-15T00:23:19;9.43;;;4.53;;
67108;SDS011;54027;50.786;7.058;2023-04-15T00:25:45;8.05;;;3.30;;
67108;SDS011;54027;50.786;7.058;2023-04-15T00:28:10;9.55;;;4.65;;
67108;SDS011;54027;50.786;7.058;2023-04-15T00:30:36;8.45;;;3.55;;
67108;SDS011;54027;50.786;7.058;2023-04-15T00:33:02;9.57;;;3.90;;
67108;SDS011;54027;50.786;7.058;2023-04-15T00:35:27;11.18;;;4.50;;
67108;SDS011;54027;50.786;7.058;2023-04-15T00:37:53;7.25;;;3.33;;
67108;SDS011;54027;50.786;7.058;2023-04-15T00:40:19;8.38;;;3.83;;
67108;SDS011;54027;50.786;7.058;2023-04-15T00:42:45;8.60;;;3.83;;
67108;SDS011;54027;50.786;7.058;2023-04-15T00:45:11;8.60;;;3.72;;
67108;SDS011;54027;50.786;7.058;2023-04-15T00:47:36;6.55;;;3.17;;
67108;SDS011;54027;50.786;7.058;2023-04-15T00:50:05;6.32;;;3.42;;
67108;SDS011;54027;50.786;7.058;2023-04-15T00:52:31;7.60;;;3.83;;
67108;SDS011;54027;50.786;7.058;2023-04-15T00:54:56;6.43;;;3.45;;
67108;SDS011;54027;50.786;7.058;2023-04-15T00:57:22;8.23;;;3.60;;
67108;SDS011;54027;50.786;7.058;2023-04-15T00:59:48;10.20;;;3.90;;
67108;SDS011;54027;50.786;7.058;2023-04-15T01:02:13;11.77;;;3.85;;
67108;SDS011;54027;50.786;7.058;2023-04-15T01:04:39;9.63;;;3.90;;
67108;SDS011;54027;50.786;7.058;2023-04-15T01:07:05;10.02;;;4.30;;
67108;SDS011;54027;50.786;7.058;2023-04-15T01:09:31;7.20;;;3.38;;
67108;SDS011;54027;50.786;7.058;2023-04-15T01:11:57;7.55;;;3.75;;
67108;SDS011;54027;50.786;7.058;2023-04-15T01:14:22;11.05;;;3.40;;
67108;SDS011;54027;50.786;7.058;2023-04-15T01:16:48;9.80;;;3.60;;
67108;SDS011;54027;50.786;7.058;2023-04-15T01:19:13;7.40;;;3.55;;
67108;SDS011;54027;50.786;7.058;2023-04-15T01:21:42;6.22;;;3.47;;
67108;SDS011;54027;50.786;7.058;2023-04-15T01:24:08;9.40;;;3.80;;
67108;SDS011;54027;50.786;7.058;2023-04-15T01:26:36;6.60;;;3.47;;
67108;SDS011;54027;50.786;7.058;2023-04-15T01:29:02;6.38;;;3.80;;
67108;SDS011;54027;50.786;7.058;2023-04-15T01:31:27;9.85;;;4.05;;
67108;SDS011;54027;50.786;7.058;2023-04-15T01:33:53;10.02;;;3.63;;
67108;SDS011;54027;50.786;7.058;2023-04-15T01:36:18;11.48;;;3.83;;
67108;SDS011;54027;50.786;7.058;2023-04-15T01:38:44;5.63;;;3.45;;
67108;SDS011;54027;50.786;7.058;2023-04-15T01:41:09;7.03;;;4.10;;
67108;SDS011;54027;50.786;7.058;2023-04-15T01:43:35;8.77;;;4.15;;
67108;SDS011;54027;50.786;7.058;2023-04-15T01:46:01;8.68;;;4.05;;
67108;SDS011;54027;50.786;7.058;2023-04-15T01:48:27;11.50;;;4.50;;
67108;SDS011;54027;50.786;7.058;2023-04-15T01:50:53;7.95;;;4.65;;
67108;SDS011;54027;50.786;7.058;2023-04-15T01:53:21;7.68;;;4.53;;
67108;SDS011;54027;50.786;7.058;2023-04-15T01:55:46;9.63;;;4.03;;
67108;SDS011;54027;50.786;7.058;2023-04-15T01:58:12;9.88;;;4.95;;
67108;SDS011;54027;50.786;7.058;2023-04-15T02:00:37;8.75;;;3.75;;
67108;SDS011;54027;50.786;7.058;2023-04-15T02:03:05;8.15;;;4.40;;
67108;SDS011;54027;50.786;7.058;2023-04-15T02:05:31;7.00;;;3.55;;
67108;SDS011;54027;50.786;7.058;2023-04-15T02:07:56;12.48;;;4.55;;
67108;SDS011;54027;50.786;7.058;2023-04-15T02:10:22;9.10;;;4.72;;
67108;SDS011;54027;50.786;7.058;2023-04-15T02:12:47;6.90;;;4.07;;
67108;SDS011;54027;50.786;7.058;2023-04-15T02:15:13;8.98;;;4.38;;
67108;SDS011;54027;50.786;7.058;2023-04-15T02:17:38;10.57;;;4.38;;
67108;SDS011;54027;50.786;7.058;2023-04-15T02:20:03;9.88;;;4.43;;
67108;SDS011;54027;50.786;7.058;2023-04-15T02:22:32;6.60;;;4.45;;
67108;SDS011;54027;50.786;7.058;2023-04-15T02:24:58;8.13;;;4.40;;
67108;SDS011;54027;50.786;7.058;2023-04-15T02:27:24;7.10;;;3.40;;
67108;SDS011;54027;50.786;7.058;2023-04-15T02:29:49;8.45;;;4.10;;
67108;SDS011;54027;50.786;7.058;2023-04-15T02:32:17;11.25;;;5.10;;
67108;SDS011;54027;50.786;7.058;2023-04-15T02:34:44;9.88;;;4.07;;
67108;SDS011;54027;50.786;7.058;2023-04-15T02:37:09;11.18;;;3.75;;
67108;SDS011;54027;50.786;7.058;2023-04-15T02:39:35;7.47;;;3.95;;
67108;SDS011;54027;50.786;7.058;2023-04-15T02:42:01;11.20;;;4.28;;
67108;SDS011;54027;50.786;7.058;2023-04-15T02:44:27;7.63;;;4.30;;
67108;SDS011;54027;50.786;7.058;2023-04-15T02:46:53;10.57;;;3.63;;
67108;SDS011;54027;50.786;7.058;2023-04-15T02:49:22;8.25;;;3.90;;
67108;SDS011;54027;50.786;7.058;2023-04-15T02:51:47;11.30;;;4.35;;
67108;SDS011;54027;50.786;7.058;2023-04-15T02:54:20;7.45;;;3.58;;
67108;SDS011;54027;50.786;7.058;2023-04-15T02:56:49;8.32;;;3.90;;
67108;SDS011;54027;50.786;7.058;2023-04-15T02:59:14;7.90;;;3.60;;
67108;SDS011;54027;50.786;7.058;2023-04-15T03:01:40;7.38;;;3.72;;
67108;SDS011;54027;50.786;7.058;2023-04-15T03:04:05;7.80;;;4.35;;
67108;SDS011;54027;50.786;7.058;2023-04-15T03:06:34;6.32;;;3.30;;
67108;SDS011;54027;50.786;7.058;2023-04-15T03:08:59;7.82;;;3.60;;
67108;SDS011;54027;50.786;7.058;2023-04-15T03:11:26;11.73;;;4.65;;
67108;SDS011;54027;50.786;7.058;2023-04-15T03:13:53;11.35;;;4.68;;
67108;SDS011;54027;50.786;7.058;2023-04-15T03:16:18;7.63;;;4.18;;
67108;SDS011;54027;50.786;7.058;2023-04-15T03:18:44;9.27;;;4.32;;
67108;SDS011;54027;50.786;7.058;2023-04-15T03:21:09;8.13;;;4.43;;
67108;SDS011;54027;50.786;7.058;2023-04-15T03:23:34;9.45;;;4.07;;
67108;SDS011;54027;50.786;7.058;2023-04-15T03:26:03;5.90;;;3.53;;
67108;SDS011;54027;50.786;7.058;2023-04-15T03:28:29;10.70;;;5.07;;
67108;SDS011;54027;50.786;7.058;2023-04-15T03:30:55;6.07;;;3.55;;
67108;SDS011;54027;50.786;7.058;2023-04-15T03:33:20;8.27;;;3.80;;
67108;SDS011;54027;50.786;7.058;2023-04-15T03:35:46;7.15;;;4.00;;
67108;SDS011;54027;50.786;7.058;2023-04-15T03:38:11;6.80;;;3.50;;
67108;SDS011;54027;50.786;7.058;2023-04-15T03:40:37;10.77;;;4.22;;
67108;SDS011;54027;50.786;7.058;2023-04-15T03:43:05;6.93;;;3.58;;
67108;SDS011;54027;50.786;7.058;2023-04-15T03:45:30;7.35;;;3.88;;
67108;SDS011;54027;50.786;7.058;2023-04-15T03:47:56;7.00;;;4.00;;
67108;SDS011;54027;50.786;7.058;2023-04-15T03:50:21;9.27;;;4.40;;
67108;SDS011;54027;50.786;7.058;2023-04-15T03:52:47;9.95;;;4.25;;
67108;SDS011;54027;50.786;7.058;2023-04-15T03:55:12;9.00;;;4.22;;
67108;SDS011;54027;50.786;7.058;2023-04-15T03:57:38;10.40;;;5.22;;
67108;SDS011;54027;50.786;7.058;2023-04-15T04:00:04;6.85;;;4.00;;
67108;SDS011;54027;50.786;7.058;2023-04-15T04:02:30;13.10;;;4.85;;
67108;SDS011;54027;50.786;7.058;2023-04-15T04:04:56;8.07;;;3.83;;
67108;SDS011;54027;50.786;7.058;2023-04-15T04:07:22;11.52;;;4.63;;
67108;SDS011;54027;50.786;7.058;2023-04-15T04:09:48;8.43;;;4.30;;
67108;SDS011;54027;50.786;7.058;2023-04-15T04:12:13;9.75;;;3.55;;
67108;SDS011;54027;50.786;7.058;2023-04-15T04:14:38;7.82;;;3.67;;
67108;SDS011;54027;50.786;7.058;2023-04-15T04:17:04;6.90;;;3.17;;
67108;SDS011;54027;50.786;7.058;2023-04-15T04:19:30;8.00;;;4.00;;
67108;SDS011;54027;50.786;7.058;2023-04-15T04:21:55;8.80;;;4.20;;
67108;SDS011;54027;50.786;7.058;2023-04-15T04:24:20;6.28;;;3.40;;
67108;SDS011;54027;50.786;7.058;2023-04-15T04:26:46;9.63;;;3.58;;
67108;SDS011;54027;50.786;7.058;2023-04-15T04:29:12;8.80;;;3.97;;
67108;SDS011;54027;50.786;7.058;2023-04-15T04:31:37;7.03;;;3.40;;
67108;SDS011;54027;50.786;7.058;2023-04-15T04:34:03;6.28;;;3.28;;
67108;SDS011;54027;50.786;7.058;2023-04-15T04:36:28;9.55;;;3.58;;
67108;SDS011;54027;50.786;7.058;2023-04-15T04:38:53;10.75;;;4.45;;
67108;SDS011;54027;50.786;7.058;2023-04-15T04:41:19;7.72;;;4.20;;
67108;SDS011;54027;50.786;7.058;2023-04-15T04:43:45;12.07;;;4.95;;
67108;SDS011;54027;50.786;7.058;2023-04-15T04:46:10;10.90;;;4.97;;
67108;SDS011;54027;50.786;7.058;2023-04-15T04:48:36;12.70;;;4.90;;
67108;SDS011;54027;50.786;7.058;2023-04-15T04:51:02;9.32;;;4.68;;
67108;SDS011;54027;50.786;7.058;2023-04-15T04:53:27;11.52;;;4.93;;
67108;SDS011;54027;50.786;7.058;2023-04-15T04:55:53;9.40;;;4.43;;
67108;SDS011;54027;50.786;7.058;2023-04-15T04:58:18;13.63;;;4.57;;
67108;SDS011;54027;50.786;7.058;2023-04-15T05:00:43;10.45;;;5.15;;
67108;SDS011;54027;50.786;7.058;2023-04-15T05:03:10;9.73;;;5.70;;
67108;SDS011;54027;50.786;7.058;2023-04-15T05:05:35;7.82;;;5.63;;
67108;SDS011;54027;50.786;7.058;2023-04-15T05:08:03;7.72;;;6.15;;
67108;SDS011;54027;50.786;7.058;2023-04-15T05:10:29;10.80;;;6.15;;
67108;SDS011;54027;50.786;7.058;2023-04-15T05:12:55;11.27;;;5.90;;
67108;SDS011;54027;50.786;7.058;2023-04-15T05:15:20;8.90;;;5.03;;
67108;SDS011;54027;50.786;7.058;2023-04-15T05:17:46;11.57;;;4.88;;
67108;SDS011;54027;50.786;7.058;2023-04-15T05:20:11;17.88;;;4.57;;
67108;SDS011;54027;50.786;7.058;2023-04-15T05:22:37;9.05;;;5.32;;
67108;SDS011;54027;50.786;7.058;2023-04-15T05:25:03;10.52;;;5.03;;
67108;SDS011;54027;50.786;7.058;2023-04-15T05:27:28;11.15;;;4.95;;
67108;SDS011;54027;50.786;7.058;2023-04-15T05:29:54;10.32;;;4.50;;
67108;SDS011;54027;50.786;7.058;2023-04-15T05:32:20;12.57;;;4.53;;
67108;SDS011;54027;50.786;7.058;2023-04-15T05:34:46;11.60;;;5.15;;
67108;SDS011;54027;50.786;7.058;2023-04-15T05:37:11;6.22;;;3.75;;
67108;SDS011;54027;50.786;7.058;2023-04-15T05:39:37;5.63;;;3.80;;
67108;SDS011;54027;50.786;7.058;2023-04-15T05:42:02;10.88;;;4.55;;
67108;SDS011;54027;50.786;7.058;2023-04-15T05:44:29;7.75;;;3.97;;
67108;SDS011;54027;50.786;7.058;2023-04-15T05:46:55;7.93;;;4.32;;
67108;SDS011;54027;50.786;7.058;2023-04-15T05:49:20;10.68;;;5.28;;
67108;SDS011;54027;50.786;7.058;2023-04-15T05:51:46;11.18;;;4.30;;
67108;SDS011;54027;50.786;7.058;2023-04-15T05:54:12;7.47;;;4.55;;
67108;SDS011;54027;50.786;7.058;2023-04-15T05:56:37;8.98;;;4.80;;
67108;SDS011;54027;50.786;7.058;2023-04-15T05:59:03;9.45;;;4.13;;
67108;SDS011;54027;50.786;7.058;2023-04-15T06:01:28;6.95;;;4.53;;
67108;SDS011;54027;50.786;7.058;2023-04-15T06:03:54;10.20;;;3.95;;
67108;SDS011;54027;50.786;7.058;2023-04-15T06:06:19;7.55;;;3.85;;
67108;SDS011;54027;50.786;7.058;2023-04-15T06:08:45;6.82;;;3.67;;
67108;SDS011;54027;50.786;7.058;2023-04-15T06:11:10;9.68;;;4.68;;
67108;SDS011;54027;50.786;7.058;2023-04-15T06:13:36;10.52;;;5.00;;
67108;SDS011;54027;50.786;7.058;2023-04-15T06:16:01;11.32;;;4.95;;
67108;SDS011;54027;50.786;7.058;2023-04-15T06:18:28;8.90;;;4.38;;
67108;SDS011;54027;50.786;7.058;2023-04-15T06:20:53;11.93;;;4.63;;
67108;SDS011;54027;50.786;7.058;2023-04-15T06:23:18;8.98;;;4.22;;
67108;SDS011;54027;50.786;7.058;2023-04-15T06:25:44;11.88;;;4.07;;
67108;SDS011;54027;50.786;7.058;2023-04-15T06:28:09;8.30;;;4.38;;
67108;SDS011;54027;50.786;7.058;2023-04-15T06:30:35;16.48;;;4.85;;
67108;SDS011;54027;50.786;7.058;2023-04-15T06:33:00;9.73;;;4.70;;
67108;SDS011;54027;50.786;7.058;2023-04-15T06:35:29;8.55;;;4.15;;
67108;SDS011;54027;50.786;7.058;2023-04-15T06:37:54;10.35;;;5.45;;
67108;SDS011;54027;50.786;7.058;2023-04-15T06:40:20;7.70;;;3.65;;
67108;SDS011;54027;50.786;7.058;2023-04-15T06:42:46;8.88;;;4.55;;
67108;SDS011;54027;50.786;7.058;2023-04-15T06:45:11;8.52;;;3.85;;
67108;SDS011;54027;50.786;7.058;2023-04-15T06:47:37;8.35;;;4.13;;
67108;SDS011;54027;50.786;7.058;2023-04-15T06:50:02;9.63;;;4.30;;
67108;SDS011;54027;50.786;7.058;2023-04-15T06:52:28;9.73;;;4.00;;
67108;SDS011;54027;50.786;7.058;2023-04-15T06:54:53;7.25;;;4.15;;
67108;SDS011;54027;50.786;7.058;2023-04-15T06:57:19;10.27;;;4.50;;
67108;SDS011;54027;50.786;7.058;2023-04-15T06:59:44;9.50;;;4.88;;
67108;SDS011;54027;50.786;7.058;2023-04-15T07:02:11;8.88;;;4.40;;
67108;SDS011;54027;50.786;7.058;2023-04-15T07:04:38;10.10;;;4.85;;
67108;SDS011;54027;50.786;7.058;2023-04-15T07:07:04;9.23;;;4.45;;
67108;SDS011;54027;50.786;7.058;2023-04-15T07:09:30;11.43;;;5.22;;
67108;SDS011;54027;50.786;7.058;2023-04-15T07:11:56;9.80;;;4.90;;
67108;SDS011;54027;50.786;7.058;2023-04-15T07:14:21;9.82;;;5.10;;
67108;SDS011;54027;50.786;7.058;2023-04-15T07:16:47;15.07;;;4.95;;
67108;SDS011;54027;50.786;7.058;2023-04-15T07:19:12;12.25;;;5.53;;
67108;SDS011;54027;50.786;7.058;2023-04-15T07:21:37;9.40;;;5.80;;
67108;SDS011;54027;50.786;7.058;2023-04-15T07:24:03;9.77;;;5.78;;
67108;SDS011;54027;50.786;7.058;2023-04-15T07:26:29;9.25;;;5.10;;
67108;SDS011;54027;50.786;7.058;2023-04-15T07:28:54;9.68;;;5.60;;
67108;SDS011;54027;50.786;7.058;2023-04-15T07:31:20;9.90;;;5.10;;
67108;SDS011;54027;50.786;7.058;2023-04-15T07:33:46;11.45;;;5.93;;
67108;SDS011;54027;50.786;7.058;2023-04-15T07:36:11;13.35;;;7.03;;
67108;SDS011;54027;50.786;7.058;2023-04-15T07:38:37;13.05;;;6.68;;
67108;SDS011;54027;50.786;7.058;2023-04-15T07:41:03;13.73;;;6.95;;
67108;SDS011;54027;50.786;7.058;2023-04-15T07:43:28;12.05;;;6.35;;
67108;SDS011;54027;50.786;7.058;2023-04-15T07:45:54;10.52;;;6.90;;
67108;SDS011;54027;50.786;7.058;2023-04-15T07:48:19;10.38;;;6.10;;
67108;SDS011;54027;50.786;7.058;2023-04-15T07:50:45;11.57;;;6.82;;
67108;SDS011;54027;50.786;7.058;2023-04-15T07:53:10;11.27;;;5.65;;
67108;SDS011;54027;50.786;7.058;2023-04-15T07:55:36;13.23;;;6.03;;
67108;SDS011;54027;50.786;7.058;2023-04-15T07:58:01;10.73;;;6.28;;
67108;SDS011;54027;50.786;7.058;2023-04-15T08:00:26;19.63;;;7.00;;
67108;SDS011;54027;50.786;7.058;2023-04-15T08:02:52;13.23;;;6.70;;
67108;SDS011;54027;50.786;7.058;2023-04-15T08:05:18;10.02;;;5.57;;
67108;SDS011;54027;50.786;7.058;2023-04-15T08:07:43;14.07;;;6.40;;
67108;SDS011;54027;50.786;7.058;2023-04-15T08:10:09;10.77;;;6.13;;
67108;SDS011;54027;50.786;7.058;2023-04-15T08:12:36;11.98;;;6.95;;
67108;SDS011;54027;50.786;7.058;2023-04-15T08:15:01;10.80;;;6.07;;
67108;SDS011;54027;50.786;7.058;2023-04-15T08:17:27;11.80;;;5.95;;
67108;SDS011;54027;50.786;7.058;2023-04-15T08:19:52;12.77;;;6.30;;
67108;SDS011;54027;50.786;7.058;2023-04-15T08:22:18;14.27;;;6.95;;
67108;SDS011;54027;50.786;7.058;2023-04-15T08:24:43;15.20;;;6.32;;
67108;SDS011;54027;50.786;7.058;2023-04-15T08:27:09;11.50;;;6.45;;
67108;SDS011;54027;50.786;7.058;2023-04-15T08:29:35;8.95;;;5.78;;
67108;SDS011;54027;50.786;7.058;2023-04-15T08:32:00;11.55;;;6.45;;
67108;SDS011;54027;50.786;7.058;2023-04-15T08:34:26;18.20;;;6.13;;
67108;SDS011;54027;50.786;7.058;2023-04-15T08:36:52;8.70;;;5.68;;
67108;SDS011;54027;50.786;7.058;2023-04-15T08:39:17;14.73;;;5.90;;
67108;SDS011;54027;50.786;7.058;2023-04-15T08:41:47;9.55;;;6.10;;
67108;SDS011;54027;50.786;7.058;2023-04-15T08:44:16;10.43;;;6.28;;
67108;SDS011;54027;50.786;7.058;2023-04-15T08:46:42;10.98;;;5.38;;
67108;SDS011;54027;50.786;7.058;2023-04-15T08:49:11;12.43;;;5.75;;
67108;SDS011;54027;50.786;7.058;2023-04-15T08:51:37;9.50;;;5.40;;
67108;SDS011;54027;50.786;7.058;2023-04-15T08:54:04;10.07;;;5.75;;
67108;SDS011;54027;50.786;7.058;2023-04-15T08:56:31;9.90;;;6.13;;
67108;SDS011;54027;50.786;7.058;2023-04-15T08:58:57;7.57;;;4.75;;
67108;SDS011;54027;50.786;7.058;2023-04-15T09:01:24;6.85;;;3.03;;
67108;SDS011;54027;50.786;7.058;2023-04-15T09:03:50;5.25;;;2.83;;
67108;SDS011;54027;50.786;7.058;2023-04-15T09:06:19;4.85;;;2.55;;
67108;SDS011;54027;50.786;7.058;2023-04-15T09:08:45;3.42;;;2.30;;
67108;SDS011;54027;50.786;7.058;2023-04-15T09:11:11;4.28;;;2.00;;
67108;SDS011;54027;50.786;7.058;2023-04-15T09:13:37;3.53;;;1.65;;
67108;SDS011;54027;50.786;7.058;2023-04-15T09:16:03;4.05;;;1.92;;
67108;SDS011;54027;50.786;7.058;2023-04-15T09:18:30;3.50;;;1.80;;
67108;SDS011;54027;50.786;7.058;2023-04-15T09:21:03;3.70;;;1.70;;
67108;SDS011;54027;50.786;7.058;2023-04-15T09:23:37;3.95;;;2.10;;
67108;SDS011;54027;50.786;7.058;2023-04-15T09:26:19;2.72;;;1.95;;
67108;SDS011;54027;50.786;7.058;2023-04-15T09:29:01;3.53;;;1.80;;
67108;SDS011;54027;50.786;7.058;2023-04-15T09:31:28;2.53;;;1.83;;
67108;SDS011;54027;50.786;7.058;2023-04-15T09:33:55;1.50;;;1.33;;
67108;SDS011;54027;50.786;7.058;2023-04-15T09:36:21;3.38;;;1.60;;
67108;SDS011;54027;50.786;7.058;2023-04-15T09:39:04;2.10;;;1.50;;
67108;SDS011;54027;50.786;7.058;2023-04-15T09:41:29;2.13;;;1.42;;
67108;SDS011;54027;50.786;7.058;2023-04-15T09:43:54;3.70;;;1.35;;
67108;SDS011;54027;50.786;7.058;2023-04-15T09:46:20;2.20;;;1.23;;
67108;SDS011;54027;50.786;7.058;2023-04-15T09:49:08;3.20;;;1.60;;
67108;SDS011;54027;50.786;7.058;2023-04-15T09:51:35;2.63;;;1.20;;
67108;SDS011;54027;50.786;7.058;2023-04-15T09:54:01;4.20;;;1.70;;
67108;SDS011;54027;50.786;7.058;2023-04-15T09:56:34;2.97;;;1.48;;
67108;SDS011;54027;50.786;7.058;2023-04-15T09:59:01;3.80;;;1.23;;
67108;SDS011;54027;50.786;7.058;2023-04-15T10:01:27;5.10;;;1.35;;
67108;SDS011;54027;50.786;7.058;2023-04-15T10:03:53;2.83;;;1.40;;
67108;SDS011;54027;50.786;7.058;2023-04-15T10:06:22;1.95;;;1.48;;
67108;SDS011;54027;50.786;7.058;2023-04-15T10:08:50;5.03;;;1.92;;
67108;SDS011;54027;50.786;7.058;2023-04-15T10:11:16;2.25;;;1.35;;
67108;SDS011;54027;50.786;7.058;2023-04-15T10:13:43;3.38;;;1.58;;
67108;SDS011;54027;50.786;7.058;2023-04-15T10:16:11;3.65;;;1.38;;
67108;SDS011;54027;50.786;7.058;2023-04-15T10:18:43;3.72;;;1.60;;
67108;SDS011;54027;50.786;7.058;2023-04-15T10:21:10;2.60;;;1.30;;
67108;SDS011;54027;50.786;7.058;2023-04-15T10:23:38;2.95;;;1.85;;
67108;SDS011;54027;50.786;7.058;2023-04-15T10:26:04;3.72;;;1.98;;
67108;SDS011;54027;50.786;7.058;2023-04-15T10:28:30;2.70;;;1.80;;
67108;SDS011;54027;50.786;7.058;2023-04-15T10:30:56;4.13;;;2.20;;
67108;SDS011;54027;50.786;7.058;2023-04-15T10:33:23;3.10;;;1.90;;
67108;SDS011;54027;50.786;7.058;2023-04-15T10:35:50;1.80;;;1.40;;
67108;SDS011;54027;50.786;7.058;2023-04-15T10:41:16;2.25;;;1.60;;
67108;SDS011;54027;50.786;7.058;2023-04-15T10:43:52;4.25;;;1.50;;
67108;SDS011;54027;50.786;7.058;2023-04-15T10:46:21;3.70;;;1.85;;
67108;SDS011;54027;50.786;7.058;2023-04-15T10:49:25;3.35;;;2.20;;
67108;SDS011;54027;50.786;7.058;2023-04-15T10:51:51;4.25;;;2.80;;
67108;SDS011;54027;50.786;7.058;2023-04-15T11:05:10;4.28;;;2.65;;
67108;SDS011;54027;50.786;7.058;2023-04-15T11:12:43;6.07;;;3.13;;
67108;SDS011;54027;50.786;7.058;2023-04-15T11:15:26;3.33;;;2.75;;
67108;SDS011;54027;50.786;7.058;2023-04-15T11:17:52;3.95;;;2.88;;
67108;SDS011;54027;50.786;7.058;2023-04-15T11:20:17;4.03;;;2.67;;
67108;SDS011;54027;50.786;7.058;2023-04-15T11:22:46;3.30;;;2.50;;
67108;SDS011;54027;50.786;7.058;2023-04-15T11:25:22;3.80;;;2.75;;
67108;SDS011;54027;50.786;7.058;2023-04-15T11:27:49;3.42;;;2.40;;
67108;SDS011;54027;50.786;7.058;2023-04-15T11:30:18;2.83;;;2.08;;
67108;SDS011;54027;50.786;7.058;2023-04-15T11:32:46;3.50;;;2.20;;
67108;SDS011;54027;50.786;7.058;2023-04-15T11:35:12;4.15;;;2.30;;
67108;SDS011;54027;50.786;7.058;2023-04-15T11:37:37;4.20;;;1.83;;
67108;SDS011;54027;50.786;7.058;2023-04-15T11:40:03;2.45;;;1.90;;
67108;SDS011;54027;50.786;7.058;2023-04-15T11:42:30;2.60;;;2.10;;
67108;SDS011;54027;50.786;7.058;2023-04-15T11:45:08;2.67;;;2.22;;
67108;SDS011;54027;50.786;7.058;2023-04-15T11:47:38;3.10;;;2.58;;
67108;SDS011;54027;50.786;7.058;2023-04-15T11:50:17;3.53;;;2.47;;
67108;SDS011;54027;50.786;7.058;2023-04-15T11:52:52;4.40;;;2.35;;
67108;SDS011;54027;50.786;7.058;2023-04-15T11:55:22;2.78;;;2.10;;
67108;SDS011;54027;50.786;7.058;2023-04-15T11:58:34;3.45;;;2.65;;
67108;SDS011;54027;50.786;7.058;2023-04-15T12:00:41;4.57;;;2.50;;
67108;SDS011;54027;50.786;7.058;2023-04-15T12:03:12;3.92;;;2.45;;
67108;SDS011;54027;50.786;7.058;2023-04-15T12:11:20;3.03;;;2.25;;
67108;SDS011;54027;50.786;7.058;2023-04-15T12:14:10;3.60;;;2.25;;
67108;SDS011;54027;50.786;7.058;2023-04-15T12:16:50;1.88;;;1.70;;
67108;SDS011;54027;50.786;7.058;2023-04-15T12:19:31;2.45;;;1.50;;
67108;SDS011;54027;50.786;7.058;2023-04-15T12:22:09;2.13;;;1.48;;
67108;SDS011;54027;50.786;7.058;2023-04-15T12:24:35;1.98;;;1.77;;
67108;SDS011;54027;50.786;7.058;2023-04-15T12:27:11;3.63;;;2.53;;
67108;SDS011;54027;50.786;7.058;2023-04-15T12:29:37;3.03;;;2.25;;
67108;SDS011;54027;50.786;7.058;2023-04-15T12:32:11;3.92;;;2.10;;
67108;SDS011;54027;50.786;7.058;2023-04-15T12:37:08;2.45;;;1.92;;
67108;SDS011;54027;50.786;7.058;2023-04-15T12:39:36;2.42;;;2.22;;
67108;SDS011;54027;50.786;7.058;2023-04-15T12:42:03;3.80;;;2.95;;
67108;SDS011;54027;50.786;7.058;2023-04-15T12:44:30;3.33;;;2.78;;
67108;SDS011;54027;50.786;7.058;2023-04-15T12:46:57;4.43;;;3.42;;
67108;SDS011;54027;50.786;7.058;2023-04-15T12:49:22;4.07;;;3.67;;
67108;SDS011;54027;50.786;7.058;2023-04-15T12:51:49;4.53;;;3.90;;
67108;SDS011;54027;50.786;7.058;2023-04-15T12:54:15;5.20;;;4.22;;
67108;SDS011;54027;50.786;7.058;2023-04-15T12:56:42;4.72;;;4.28;;
67108;SDS011;54027;50.786;7.058;2023-04-15T12:59:08;5.70;;;4.60;;
67108;SDS011;54027;50.786;7.058;2023-04-15T13:01:33;4.60;;;4.20;;
67108;SDS011;54027;50.786;7.058;2023-04-15T13:03:59;5.50;;;4.63;;
67108;SDS011;54027;50.786;7.058;2023-04-15T13:06:24;3.65;;;3.33;;
67108;SDS011;54027;50.786;7.058;2023-04-15T13:08:50;3.72;;;3.30;;
67108;SDS011;54027;50.786;7.058;2023-04-15T13:11:15;4.47;;;3.33;;
67108;SDS011;54027;50.786;7.058;2023-04-15T13:13:41;5.28;;;4.07;;
67108;SDS011;54027;50.786;7.058;2023-04-15T13:16:07;5.38;;;4.43;;
67108;SDS011;54027;50.786;7.058;2023-04-15T13:18:32;4.32;;;3.92;;
67108;SDS011;54027;50.786;7.058;2023-04-15T13:20:58;4.00;;;3.63;;
67108;SDS011;54027;50.786;7.058;2023-04-15T13:23:25;3.78;;;3.20;;
67108;SDS011;54027;50.786;7.058;2023-04-15T13:25:50;4.57;;;3.97;;
67108;SDS011;54027;50.786;7.058;2023-04-15T13:28:16;5.00;;;3.72;;
67108;SDS011;54027;50.786;7.058;2023-04-15T13:30:41;3.90;;;3.60;;
67108;SDS011;54027;50.786;7.058;2023-04-15T13:33:08;4.63;;;4.13;;
67108;SDS011;54027;50.786;7.058;2023-04-15T13:35:33;3.97;;;3.50;;
67108;SDS011;54027;50.786;7.058;2023-04-15T13:37:59;5.75;;;4.00;;
67108;SDS011;54027;50.786;7.058;2023-04-15T13:40:25;4.97;;;4.45;;
67108;SDS011;54027;50.786;7.058;2023-04-15T13:42:50;4.68;;;4.25;;
67108;SDS011;54027;50.786;7.058;2023-04-15T13:45:17;6.30;;;4.22;;
67108;SDS011;54027;50.786;7.058;2023-04-15T13:47:42;5.78;;;4.90;;
67108;SDS011;54027;50.786;7.058;2023-04-15T13:50:08;6.28;;;5.68;;
67108;SDS011;54027;50.786;7.058;2023-04-15T13:52:33;7.65;;;6.80;;
67108;SDS011;54027;50.786;7.058;2023-04-15T13:54:59;7.97;;;6.47;;
67108;SDS011;54027;50.786;7.058;2023-04-15T13:57:25;7.25;;;6.50;;
67108;SDS011;54027;50.786;7.058;2023-04-15T13:59:50;7.85;;;6.55;;
67108;SDS011;54027;50.786;7.058;2023-04-15T14:02:16;8.20;;;7.25;;
67108;SDS011;54027;50.786;7.058;2023-04-15T14:04:41;8.15;;;7.07;;
67108;SDS011;54027;50.786;7.058;2023-04-15T14:07:07;7.80;;;7.00;;
67108;SDS011;54027;50.786;7.058;2023-04-15T14:09:32;8.07;;;7.28;;
67108;SDS011;54027;50.786;7.058;2023-04-15T14:11:58;7.07;;;6.35;;
67108;SDS011;54027;50.786;7.058;2023-04-15T14:14:25;8.15;;;6.70;;
67108;SDS011;54027;50.786;7.058;2023-04-15T14:16:50;9.30;;;6.93;;
67108;SDS011;54027;50.786;7.058;2023-04-15T14:19:16;9.02;;;6.93;;
67108;SDS011;54027;50.786;7.058;2023-04-15T14:21:41;6.88;;;6.18;;
67108;SDS011;54027;50.786;7.058;2023-04-15T14:24:07;7.05;;;6.15;;
67108;SDS011;54027;50.786;7.058;2023-04-15T14:26:32;11.57;;;6.05;;
67108;SDS011;54027;50.786;7.058;2023-04-15T14:28:57;7.68;;;4.95;;
67108;SDS011;54027;50.786;7.058;2023-04-15T14:31:23;6.50;;;4.45;;
67108;SDS011;54027;50.786;7.058;2023-04-15T14:33:48;5.25;;;4.28;;
67108;SDS011;54027;50.786;7.058;2023-04-15T14:36:14;5.75;;;4.15;;
67108;SDS011;54027;50.786;7.058;2023-04-15T14:38:39;6.72;;;4.13;;
67108;SDS011;54027;50.786;7.058;2023-04-15T14:41:05;4.85;;;4.35;;
67108;SDS011;54027;50.786;7.058;2023-04-15T14:43:32;4.72;;;4.07;;
67108;SDS011;54027;50.786;7.058;2023-04-15T14:45:57;4.57;;;3.50;;
67108;SDS011;54027;50.786;7.058;2023-04-15T14:48:23;5.05;;;3.85;;
67108;SDS011;54027;50.786;7.058;2023-04-15T14:50:48;4.55;;;3.63;;
67108;SDS011;54027;50.786;7.058;2023-04-15T14:53:13;4.53;;;3.72;;
67108;SDS011;54027;50.786;7.058;2023-04-15T14:55:39;5.65;;;3.47;;
67108;SDS011;54027;50.786;7.058;2023-04-15T14:58:05;4.28;;;3.63;;
67108;SDS011;54027;50.786;7.058;2023-04-15T15:00:32;4.18;;;3.40;;
67108;SDS011;54027;50.786;7.058;2023-04-15T15:02:57;5.40;;;4.55;;
67108;SDS011;54027;50.786;7.058;2023-04-15T15:05:23;6.60;;;5.00;;
67108;SDS011;54027;50.786;7.058;2023-04-15T15:07:48;7.15;;;4.60;;
67108;SDS011;54027;50.786;7.058;2023-04-15T15:10:13;6.70;;;5.07;;